This is the latest recevied weather packets stored in our database for station/object KD7AWQ. If no packets are shown the sender has not sent any weather packets the latest 1 day(s).
| Time | Temp. | Humidity | Pressure | Rain* | Wind** | Luminosity | Snow |
|---|---|---|---|---|---|---|---|
| 1778027179 | 18.33° C | 35% | 1179.3 hPa | 0 mm | 4.92 m/s, 284° | 283 W/m² | - |
| 1778026874 | 18.33° C | 35% | 1179.5 hPa | 0 mm | 4.92 m/s, 252° | 313 W/m² | - |
| 1778026571 | 18.33° C | 35% | 1179.3 hPa | 0 mm | 4.02 m/s, 296° | 180 W/m² | - |
| 1778026268 | 18.89° C | 35% | 1179.2 hPa | 0 mm | 5.81 m/s, 287° | 336 W/m² | - |
| 1778025966 | 18.89° C | 34% | 1179.2 hPa | 0 mm | 3.13 m/s, 310° | 426 W/m² | - |
| 1778025663 | 18.89° C | 35% | 1178.8 hPa | 0 mm | 5.81 m/s, 287° | 443 W/m² | - |
| 1778025361 | 18.89° C | 35% | 1179.3 hPa | 0 mm | 7.6 m/s, 269° | 445 W/m² | - |
| 1778025057 | 18.89° C | 36% | 1179.3 hPa | 0 mm | 8.05 m/s, 280° | 497 W/m² | - |
| 1778024754 | 18.33° C | 37% | 1179.3 hPa | 0 mm | 5.36 m/s, 294° | 491 W/m² | - |
| 1778024451 | 18.33° C | 38% | 1179.2 hPa | 0 mm | 4.02 m/s, 287° | 181 W/m² | - |
| 1778024149 | 18.89° C | 38% | 1179 hPa | 0 mm | 4.92 m/s, 286° | 510 W/m² | - |
| 1778023846 | 18.89° C | 40% | 1178.8 hPa | 0 mm | 6.26 m/s, 286° | 419 W/m² | - |
| 1778023544 | 18.89° C | 41% | 1179.2 hPa | 0 mm | 5.36 m/s, 278° | 568 W/m² | - |
| 1778023241 | 19.44° C | 38% | 1179 hPa | 0 mm | 7.6 m/s, 279° | 150 W/m² | - |
| 1778022937 | 19.44° C | 38% | 1178.8 hPa | 0 mm | 4.92 m/s, 283° | 676 W/m² | - |
| 1778022636 | 20° C | 34% | 1178.7 hPa | 0 mm | 9.39 m/s, 305° | 720 W/m² | - |
| 1778022333 | 18.89° C | 39% | 1178.9 hPa | 0 mm | 4.02 m/s, 309° | 744 W/m² | - |
| 1778022030 | 18.33° C | 39% | 1178.6 hPa | 0 mm | 7.6 m/s, 315° | 762 W/m² | - |
| 1778021726 | 18.33° C | 38% | 1179 hPa | 0 mm | 8.49 m/s, 238° | 113 W/m² | - |
| 1778021423 | 18.89° C | 39% | 1178.8 hPa | 0 mm | 4.47 m/s, 278° | 163 W/m² | - |
| 1778021120 | 18.89° C | 37% | 1178.8 hPa | 0 mm | 7.15 m/s, 272° | 789 W/m² | - |
| 1778020817 | 18.89° C | 37% | 1179 hPa | 0 mm | 6.26 m/s, 275° | 811 W/m² | - |
| 1778020514 | 18.33° C | 40% | 1179.3 hPa | 0 mm | 4.92 m/s, 272° | 263 W/m² | - |
| 1778020216 | 18.33° C | 39% | 1179.3 hPa | 0 mm | 5.36 m/s, 221° | 170 W/m² | - |
| 1778019907 | 18.33° C | 40% | 1179 hPa | 0 mm | 3.13 m/s, 300° | 171 W/m² | - |
* Rain latest hour (hover to see other rain measurements)
** Current wind speed in m/s (hover to see current wind gust speed)